createdAt,value
2019-02-09T00:01:09.749Z,7.80
2019-02-09T00:03:37.584Z,7.70
2019-02-09T00:06:05.685Z,7.60
2019-02-09T00:08:33.821Z,7.60
2019-02-09T00:11:01.868Z,7.50
2019-02-09T00:13:30.267Z,7.40
2019-02-09T00:15:58.770Z,7.40
2019-02-09T00:18:26.571Z,7.30
2019-02-09T00:20:54.690Z,7.30
2019-02-09T00:23:25.533Z,7.20
2019-02-09T00:25:53.496Z,7.20
2019-02-09T00:28:21.468Z,7.20
2019-02-09T00:30:49.501Z,7.10
2019-02-09T00:33:18.080Z,7.10
2019-02-09T00:35:47.625Z,7.10
2019-02-09T00:38:15.758Z,7.00
2019-02-09T00:40:43.664Z,7.00
2019-02-09T00:43:12.009Z,7.00
2019-02-09T00:45:39.856Z,7.00
2019-02-09T00:48:07.985Z,7.00
2019-02-09T00:50:35.984Z,6.90
2019-02-09T00:53:04.491Z,7.00
2019-02-09T00:55:33.376Z,6.90
2019-02-09T00:58:01.266Z,6.90
2019-02-09T01:00:31.577Z,6.90
2019-02-09T01:02:59.392Z,6.90
2019-02-09T01:05:30.308Z,6.90
2019-02-09T01:07:58.309Z,6.90
2019-02-09T01:10:28.727Z,6.80
2019-02-09T01:12:56.867Z,6.80
2019-02-09T01:15:24.774Z,6.80
2019-02-09T01:17:52.497Z,6.80
2019-02-09T01:20:21.995Z,6.80
2019-02-09T01:22:50.008Z,6.80
2019-02-09T01:25:19.078Z,6.70
2019-02-09T01:27:46.923Z,6.80
2019-02-09T01:30:17.296Z,6.80
2019-02-09T01:32:45.418Z,6.70
2019-02-09T01:35:14.575Z,6.70
2019-02-09T01:37:42.627Z,6.70
2019-02-09T01:40:13.138Z,6.70
2019-02-09T01:42:41.152Z,6.80
2019-02-09T01:45:11.914Z,6.80
2019-02-09T01:47:40.319Z,6.80
2019-02-09T01:50:09.788Z,6.80
2019-02-09T01:52:37.814Z,6.80
2019-02-09T01:55:06.415Z,6.80
2019-02-09T01:57:34.321Z,6.80
2019-02-09T02:00:10.165Z,6.80
2019-02-09T02:02:32.276Z,6.80
2019-02-09T02:04:59.958Z,6.80
2019-02-09T02:07:27.855Z,6.90
2019-02-09T02:09:56.451Z,6.80
2019-02-09T02:12:24.376Z,6.80
2019-02-09T02:14:52.426Z,6.90
2019-02-09T02:17:20.192Z,6.90
2019-02-09T02:19:48.288Z,6.90
2019-02-09T02:22:16.101Z,6.90
2019-02-09T02:24:43.755Z,6.80
2019-02-09T02:27:11.999Z,6.80
2019-02-09T02:29:39.880Z,6.80
2019-02-09T02:32:07.929Z,6.80
2019-02-09T02:34:35.707Z,6.80
2019-02-09T02:37:03.214Z,6.80
2019-02-09T02:39:30.849Z,6.80
2019-02-09T02:41:58.871Z,6.80
2019-02-09T02:44:27.123Z,6.80
2019-02-09T02:46:55.605Z,6.80
2019-02-09T02:49:23.605Z,6.80
2019-02-09T02:51:51.570Z,6.80
2019-02-09T02:54:19.698Z,6.80
2019-02-09T02:56:47.884Z,6.80
2019-02-09T02:59:15.506Z,6.80
2019-02-09T03:01:43.277Z,6.80
2019-02-09T03:04:11.410Z,6.80
2019-02-09T03:06:39.452Z,6.80
2019-02-09T03:09:08.413Z,6.80
2019-02-09T03:11:36.656Z,6.80
2019-02-09T03:14:05.269Z,6.90
2019-02-09T03:16:33.207Z,6.90
2019-02-09T03:19:01.428Z,6.90
2019-02-09T03:21:29.648Z,6.90
2019-02-09T03:23:58.199Z,6.90
2019-02-09T03:26:26.173Z,6.90
2019-02-09T03:28:54.285Z,6.90
2019-02-09T03:31:22.124Z,6.90
2019-02-09T03:33:50.407Z,6.90
2019-02-09T03:36:18.365Z,6.90
2019-02-09T03:38:46.514Z,6.90
2019-02-09T03:41:14.316Z,6.90
2019-02-09T03:43:42.407Z,6.90
2019-02-09T03:46:10.793Z,6.90
2019-02-09T03:48:39.014Z,6.90
2019-02-09T03:51:07.030Z,6.90
2019-02-09T03:53:34.923Z,6.90
2019-02-09T03:56:03.489Z,6.90
2019-02-09T03:58:31.532Z,7.00
2019-02-09T04:00:59.898Z,6.90
2019-02-09T04:03:27.673Z,7.00
2019-02-09T04:05:55.862Z,7.00
2019-02-09T04:08:23.992Z,7.00
2019-02-09T04:10:51.978Z,7.00
2019-02-09T04:13:20.378Z,7.00
2019-02-09T04:15:48.255Z,7.00
2019-02-09T04:18:16.010Z,7.00
2019-02-09T04:20:47.952Z,7.00
2019-02-09T04:23:16.181Z,7.00
2019-02-09T04:25:44.307Z,7.00
2019-02-09T04:28:12.368Z,7.10
2019-02-09T04:30:40.397Z,7.10
2019-02-09T04:33:08.207Z,7.10
2019-02-09T04:35:36.679Z,7.10
2019-02-09T04:38:05.151Z,7.10
2019-02-09T04:40:32.833Z,7.00
2019-02-09T04:43:00.938Z,7.00
2019-02-09T04:45:29.273Z,7.00
2019-02-09T04:47:57.163Z,7.00
2019-02-09T04:50:25.269Z,7.00
2019-02-09T04:52:53.712Z,7.10
2019-02-09T04:55:22.644Z,7.00
2019-02-09T04:57:50.410Z,7.10
2019-02-09T05:00:20.802Z,7.10
2019-02-09T05:02:49.080Z,7.10
2019-02-09T05:05:17.360Z,7.10
2019-02-09T05:07:50.475Z,7.10
2019-02-09T05:10:18.603Z,7.20
2019-02-09T05:12:46.335Z,7.20
2019-02-09T05:15:14.792Z,7.20
2019-02-09T05:17:42.380Z,7.20
2019-02-09T05:20:12.684Z,7.20
2019-02-09T05:22:40.503Z,7.30
2019-02-09T05:25:08.688Z,7.20
2019-02-09T05:27:36.453Z,7.30
2019-02-09T05:30:06.216Z,7.20
2019-02-09T05:32:33.574Z,7.30
2019-02-09T05:35:01.290Z,7.30
2019-02-09T05:37:28.903Z,7.30
2019-02-09T05:39:56.415Z,7.30
2019-02-09T05:42:24.081Z,7.30
2019-02-09T05:44:51.726Z,7.40
2019-02-09T05:47:19.531Z,7.40
2019-02-09T05:49:46.998Z,7.40
2019-02-09T05:52:14.330Z,7.40
2019-02-09T05:54:41.759Z,7.50
2019-02-09T05:57:12.833Z,7.40
2019-02-09T05:59:40.599Z,7.40
2019-02-09T06:02:08.290Z,7.40
2019-02-09T06:04:36.099Z,7.40
2019-02-09T06:07:03.796Z,7.40
2019-02-09T06:09:31.168Z,7.40
2019-02-09T06:12:02.581Z,7.40
2019-02-09T06:14:30.198Z,7.30
2019-02-09T06:16:59.000Z,7.30
2019-02-09T06:19:26.783Z,7.20
2019-02-09T06:21:55.015Z,7.10
2019-02-09T06:24:24.203Z,7.00
2019-02-09T06:26:52.427Z,7.00
2019-02-09T06:29:20.369Z,6.80
2019-02-09T06:31:48.296Z,6.80
2019-02-09T06:34:16.031Z,6.70
2019-02-09T06:36:43.875Z,6.70
2019-02-09T06:39:11.533Z,6.70
2019-02-09T06:41:39.504Z,6.70
2019-02-09T06:44:07.499Z,6.70
2019-02-09T06:46:35.292Z,6.80
2019-02-09T06:49:03.239Z,6.80
2019-02-09T06:51:31.097Z,6.80
2019-02-09T06:54:01.010Z,6.90
2019-02-09T06:56:28.523Z,6.90
2019-02-09T06:58:56.064Z,6.90
2019-02-09T07:01:23.972Z,7.00
2019-02-09T07:04:26.797Z,7.00
2019-02-09T07:06:54.387Z,7.00
2019-02-09T07:09:25.636Z,6.90
2019-02-09T07:11:53.561Z,7.00
2019-02-09T07:14:22.289Z,6.90
2019-02-09T07:16:50.164Z,7.00
2019-02-09T07:19:22.036Z,7.00
2019-02-09T07:21:50.063Z,7.00
2019-02-09T07:24:21.793Z,7.00
2019-02-09T07:26:49.784Z,7.00
2019-02-09T07:29:19.123Z,7.10
2019-02-09T07:31:47.127Z,7.10
2019-02-09T07:34:14.991Z,7.10
2019-02-09T07:36:43.555Z,7.10
2019-02-09T07:39:15.663Z,7.20
2019-02-09T07:41:44.614Z,7.20
2019-02-09T07:44:15.510Z,7.20
2019-02-09T07:46:46.037Z,7.20
2019-02-09T07:49:14.317Z,7.30
2019-02-09T07:51:42.287Z,7.30
2019-02-09T07:54:10.015Z,7.30
2019-02-09T07:56:40.271Z,7.30
2019-02-09T07:59:07.993Z,7.30
2019-02-09T08:01:36.020Z,7.40
2019-02-09T08:04:04.807Z,7.40
2019-02-09T08:06:32.723Z,7.40
2019-02-09T08:09:00.991Z,7.40
2019-02-09T08:11:32.423Z,7.50
2019-02-09T08:14:00.362Z,7.90
2019-02-09T08:16:28.472Z,8.70
2019-02-09T08:18:56.597Z,8.40
2019-02-09T08:21:24.187Z,8.10
2019-02-09T08:23:52.162Z,7.80
2019-02-09T08:26:19.823Z,8.10
2019-02-09T08:28:47.268Z,8.70
2019-02-09T08:31:21.306Z,8.50
2019-02-09T08:33:50.784Z,8.40
2019-02-09T08:36:19.392Z,8.30
2019-02-09T08:38:46.992Z,8.10
2019-02-09T08:41:15.327Z,8.00
2019-02-09T08:43:42.729Z,8.00
2019-02-09T08:46:11.091Z,7.90
2019-02-09T08:48:43.912Z,7.90
2019-02-09T08:51:31.363Z,7.90
2019-02-09T08:53:59.115Z,8.00
2019-02-09T08:56:26.626Z,8.30
2019-02-09T08:58:54.724Z,8.50
2019-02-09T09:01:22.835Z,9.20
2019-02-09T09:03:50.610Z,10.80
2019-02-09T09:06:19.437Z,11.10
2019-02-09T09:08:49.734Z,10.60
2019-02-09T09:11:17.189Z,10.10
2019-02-09T09:13:44.516Z,9.70
2019-02-09T09:16:15.015Z,9.30
2019-02-09T09:18:45.251Z,9.10
2019-02-09T09:21:13.995Z,9.40
2019-02-09T09:23:41.959Z,9.40
2019-02-09T09:26:09.860Z,9.60
2019-02-09T09:28:37.546Z,9.90
2019-02-09T09:31:05.835Z,9.90
2019-02-09T09:33:33.791Z,9.90
2019-02-09T09:36:01.993Z,10.90
2019-02-09T09:38:29.983Z,11.60
2019-02-09T09:41:20.669Z,11.80
2019-02-09T09:44:34.661Z,12.00
2019-02-09T09:47:04.977Z,12.10
2019-02-09T09:49:33.247Z,11.80
2019-02-09T09:52:01.172Z,11.10
2019-02-09T09:54:29.783Z,10.50
2019-02-09T09:56:58.370Z,10.00
2019-02-09T09:59:27.609Z,9.80
2019-02-09T10:01:57.486Z,9.70
2019-02-09T10:04:26.539Z,9.60
2019-02-09T10:06:55.225Z,9.50
2019-02-09T10:09:23.184Z,9.30
2019-02-09T10:11:51.038Z,9.20
2019-02-09T10:14:19.341Z,9.20
2019-02-09T10:16:50.610Z,9.20
2019-02-09T10:19:20.963Z,9.20
2019-02-09T10:21:50.447Z,9.20
2019-02-09T10:24:18.599Z,9.30
2019-02-09T10:26:49.844Z,9.40
2019-02-09T10:29:20.769Z,9.30
2019-02-09T10:31:49.419Z,9.30
2019-02-09T10:34:17.272Z,9.30
2019-02-09T10:36:46.597Z,9.30
2019-02-09T10:39:14.895Z,9.30
2019-02-09T10:41:43.626Z,9.30
2019-02-09T10:44:12.439Z,9.50
2019-02-09T10:46:40.482Z,9.50
2019-02-09T10:49:08.690Z,9.40
2019-02-09T10:51:38.984Z,9.40
2019-02-09T10:54:07.765Z,9.50
2019-02-09T10:56:45.477Z,9.50
2019-02-09T10:59:21.531Z,9.50
2019-02-09T11:07:19.537Z,9.20
2019-02-09T11:10:16.961Z,9.10
2019-02-09T11:33:17.308Z,9.40
2019-02-09T11:35:47.653Z,9.40
2019-02-09T11:38:28.200Z,9.50
2019-02-09T11:40:56.209Z,9.70
2019-02-09T11:49:15.622Z,9.60
2019-02-09T11:51:51.285Z,9.60
2019-02-09T11:54:23.251Z,9.60
2019-02-09T12:02:25.175Z,9.80
2019-02-09T12:04:53.203Z,9.90
2019-02-09T12:07:23.916Z,9.90
2019-02-09T12:12:32.539Z,9.90
2019-02-09T12:15:02.084Z,9.80
2019-02-09T12:17:31.018Z,9.70
2019-02-09T12:20:03.331Z,9.60
2019-02-09T12:22:40.454Z,9.60
2019-02-09T12:25:14.700Z,9.50
2019-02-09T12:27:45.510Z,9.40
2019-02-09T12:30:19.680Z,9.40
2019-02-09T12:56:31.534Z,9.90
2019-02-09T12:59:06.061Z,9.90
2019-02-09T13:02:21.213Z,10.00
2019-02-09T13:05:29.351Z,9.90
2019-02-09T13:12:00.699Z,9.80
2019-02-09T13:15:27.487Z,9.70
2019-02-09T13:29:28.196Z,9.90
2019-02-09T13:31:59.322Z,10.00
2019-02-09T13:34:34.247Z,9.90
2019-02-09T13:37:24.700Z,9.90
2019-02-09T13:39:58.462Z,10.00
2019-02-09T13:42:32.894Z,10.10
2019-02-09T13:45:06.323Z,10.10
2019-02-09T13:47:38.080Z,10.00
2019-02-09T13:50:08.583Z,10.00
2019-02-09T13:52:36.788Z,10.00
2019-02-09T13:55:06.666Z,10.20
2019-02-09T13:57:34.907Z,10.20
2019-02-09T14:00:06.626Z,10.20
2019-02-09T14:02:49.819Z,10.20
2019-02-09T14:05:27.234Z,10.30
2019-02-09T14:07:55.567Z,10.30
2019-02-09T14:10:28.895Z,10.30
2019-02-09T14:13:01.897Z,10.20
2019-02-09T14:15:54.296Z,10.00
2019-02-09T14:18:11.093Z,9.80
2019-02-09T14:20:59.386Z,9.60
2019-02-09T14:23:28.861Z,9.30
2019-02-09T14:25:57.450Z,8.90
2019-02-09T14:28:27.902Z,8.70
2019-02-09T14:30:56.603Z,8.50
2019-02-09T14:33:30.805Z,8.30
2019-02-09T14:35:59.167Z,7.80
2019-02-09T14:38:33.019Z,7.50
2019-02-09T14:41:55.084Z,7.30
2019-02-09T14:44:24.405Z,7.20
2019-02-09T14:46:58.603Z,7.20
2019-02-09T14:49:27.593Z,7.10
2019-02-09T14:52:08.391Z,7.10
2019-02-09T14:54:48.225Z,7.20
2019-02-09T14:57:20.450Z,7.20
2019-02-09T14:59:51.842Z,7.20
2019-02-09T15:02:20.239Z,7.20
2019-02-09T15:04:48.336Z,7.10
2019-02-09T15:07:18.792Z,7.10
2019-02-09T15:09:47.364Z,7.10
2019-02-09T15:12:33.217Z,7.10
2019-02-09T15:15:04.070Z,7.10
2019-02-09T15:17:42.508Z,7.00
2019-02-09T15:20:12.836Z,7.00
2019-02-09T15:22:44.298Z,7.10
2019-02-09T15:25:12.894Z,7.20
2019-02-09T15:27:41.648Z,7.20
2019-02-09T15:30:17.046Z,7.10
2019-02-09T15:32:50.215Z,7.00
2019-02-09T15:35:21.172Z,7.00
2019-02-09T15:37:49.613Z,7.00
2019-02-09T15:40:23.112Z,6.90
2019-02-09T15:42:56.114Z,6.90
2019-02-09T15:45:24.965Z,7.00
2019-02-09T15:47:55.597Z,6.90
2019-02-09T15:50:32.712Z,7.00
2019-02-09T15:53:00.634Z,7.00
2019-02-09T15:55:28.862Z,7.10
2019-02-09T15:57:57.785Z,7.20
2019-02-09T16:00:26.518Z,7.10
2019-02-09T16:02:56.589Z,7.20
2019-02-09T16:05:34.190Z,7.20
2019-02-09T16:08:23.685Z,7.20
2019-02-09T16:11:14.205Z,7.20
2019-02-09T16:13:45.717Z,7.20
2019-02-09T16:16:15.312Z,7.30
2019-02-09T16:19:00.965Z,7.20
2019-02-09T16:21:44.960Z,7.20
2019-02-09T16:24:38.276Z,7.20
2019-02-09T16:27:18.084Z,7.30
2019-02-09T16:29:53.614Z,7.30
2019-02-09T16:34:57.088Z,7.20
2019-02-09T16:37:25.527Z,7.30
2019-02-09T16:39:54.620Z,7.20
2019-02-09T16:42:23.036Z,7.20
2019-02-09T16:47:26.349Z,7.20
2019-02-09T16:49:54.969Z,7.20
2019-02-09T16:53:16.338Z,7.20
2019-02-09T16:55:54.320Z,7.20
2019-02-09T16:58:23.416Z,7.20
2019-02-09T17:00:51.812Z,7.20
2019-02-09T17:03:20.192Z,7.20
2019-02-09T17:05:48.666Z,7.10
2019-02-09T17:08:18.064Z,7.10
2019-02-09T17:10:46.769Z,7.10
2019-02-09T17:13:15.386Z,7.10
2019-02-09T17:15:53.477Z,7.10
2019-02-09T17:18:24.415Z,7.10
2019-02-09T17:20:53.016Z,7.10
2019-02-09T17:23:21.761Z,7.10
2019-02-09T17:25:50.431Z,7.10
2019-02-09T17:28:26.506Z,7.10
2019-02-09T17:37:26.628Z,7.20
2019-02-09T17:43:21.401Z,7.20
2019-02-09T17:46:12.062Z,7.20
2019-02-09T17:52:15.254Z,7.20
2019-02-09T17:54:43.054Z,7.20
2019-02-09T17:57:11.377Z,7.20
2019-02-09T18:00:06.169Z,7.20
2019-02-09T18:02:34.370Z,7.20
2019-02-09T18:05:03.171Z,7.30
2019-02-09T18:07:36.055Z,7.30
2019-02-09T18:10:06.114Z,7.30
2019-02-09T18:12:39.346Z,7.30
2019-02-09T18:15:08.191Z,7.40
2019-02-09T18:17:36.395Z,7.40
2019-02-09T18:20:05.865Z,7.50
2019-02-09T18:22:33.579Z,7.50
2019-02-09T18:25:02.167Z,7.50
2019-02-09T18:27:30.111Z,7.50
2019-02-09T18:30:33.669Z,7.60
2019-02-09T18:39:28.429Z,7.60
2019-02-09T18:41:57.437Z,7.60
2019-02-09T18:44:25.844Z,7.60
2019-02-09T18:46:55.999Z,7.50
2019-02-09T18:49:23.732Z,7.60
2019-02-09T18:51:52.722Z,7.50
2019-02-09T18:54:20.858Z,7.50
2019-02-09T18:56:48.927Z,7.50
2019-02-09T18:59:25.449Z,7.60
2019-02-09T19:01:57.174Z,7.60
2019-02-09T19:14:17.155Z,7.70
2019-02-09T19:16:45.681Z,7.70
2019-02-09T19:19:15.303Z,7.80
2019-02-09T19:21:43.756Z,7.80
2019-02-09T19:24:11.664Z,7.90
2019-02-09T19:26:40.759Z,7.90
2019-02-09T19:29:08.947Z,7.90
2019-02-09T19:31:39.930Z,8.00
2019-02-09T19:34:08.115Z,8.00
2019-02-09T19:36:37.000Z,8.00
2019-02-09T19:39:08.326Z,8.00
2019-02-09T19:41:36.734Z,8.10
2019-02-09T19:44:13.256Z,8.10
2019-02-09T19:46:52.298Z,8.10
2019-02-09T19:49:25.897Z,8.10
2019-02-09T19:51:58.235Z,8.10
2019-02-09T19:54:30.933Z,8.10
2019-02-09T19:57:04.278Z,8.00
2019-02-09T19:59:37.254Z,8.00
2019-02-09T20:02:14.245Z,8.00
2019-02-09T20:05:35.665Z,7.90
2019-02-09T20:08:15.043Z,7.90
2019-02-09T20:10:54.629Z,7.90
2019-02-09T20:13:28.980Z,7.90
2019-02-09T20:15:58.056Z,7.90
2019-02-09T20:18:31.134Z,8.00
2019-02-09T20:20:59.303Z,8.00
2019-02-09T20:23:54.818Z,8.10
2019-02-09T20:26:27.462Z,8.10
2019-02-09T20:29:20.441Z,8.10
2019-02-09T20:31:51.267Z,8.00
2019-02-09T20:34:23.681Z,8.00
2019-02-09T20:37:15.785Z,7.90
2019-02-09T20:44:49.944Z,7.90
2019-02-09T20:47:18.638Z,7.90
2019-02-09T20:49:48.078Z,7.90
2019-02-09T20:52:31.759Z,7.80
2019-02-09T20:55:00.833Z,7.80
2019-02-09T20:57:30.357Z,7.80
2019-02-09T21:00:01.140Z,7.80
2019-02-09T21:02:31.221Z,7.70
2019-02-09T21:05:00.789Z,7.70
2019-02-09T21:07:36.409Z,7.70
2019-02-09T21:10:23.381Z,7.80
2019-02-09T21:13:14.229Z,7.80
2019-02-09T21:15:45.574Z,7.70
2019-02-09T21:18:24.791Z,7.70
2019-02-09T21:20:54.725Z,7.70
2019-02-09T21:23:22.826Z,7.70
2019-02-09T21:25:53.409Z,7.60
2019-02-09T21:28:21.733Z,7.60
2019-02-09T21:31:09.385Z,7.50
2019-02-09T21:33:37.860Z,7.40
2019-02-09T21:36:11.003Z,7.40
2019-02-09T21:38:43.036Z,7.40
2019-02-09T21:41:14.963Z,7.40
2019-02-09T21:43:52.585Z,7.30
2019-02-09T21:46:41.565Z,7.30
2019-02-09T21:49:11.631Z,7.30
2019-02-09T21:51:45.187Z,7.30
2019-02-09T21:54:13.959Z,7.20
2019-02-09T21:56:45.285Z,7.20
2019-02-09T21:59:21.985Z,7.10
2019-02-09T22:01:52.706Z,7.10
2019-02-09T22:04:26.822Z,7.10
2019-02-09T22:07:01.156Z,7.00
2019-02-09T22:09:39.441Z,7.00
2019-02-09T22:12:10.714Z,7.00
2019-02-09T22:14:47.553Z,7.00
2019-02-09T22:17:31.736Z,6.90
2019-02-09T22:20:00.611Z,6.90
2019-02-09T22:22:34.927Z,6.90
2019-02-09T22:25:13.677Z,6.90
2019-02-09T22:27:39.346Z,6.90
2019-02-09T22:30:09.289Z,6.90
2019-02-09T22:32:39.948Z,6.80
2019-02-09T22:35:08.357Z,6.80
2019-02-09T22:37:36.427Z,6.80
2019-02-09T22:40:07.953Z,6.90
2019-02-09T22:42:35.909Z,6.90
2019-02-09T22:45:05.318Z,6.90
2019-02-09T22:47:33.649Z,6.90
2019-02-09T22:50:01.744Z,6.90
2019-02-09T22:52:29.604Z,6.80
2019-02-09T22:54:58.381Z,6.80
2019-02-09T22:57:26.539Z,6.90
2019-02-09T22:59:54.336Z,6.90
2019-02-09T23:02:21.830Z,6.90
2019-02-09T23:05:21.361Z,7.00
2019-02-09T23:07:49.291Z,7.00
2019-02-09T23:10:17.777Z,7.10
2019-02-09T23:12:48.603Z,7.20
2019-02-09T23:15:15.799Z,7.20
2019-02-09T23:17:43.837Z,7.30
2019-02-09T23:20:11.815Z,7.30
2019-02-09T23:22:40.250Z,7.40
2019-02-09T23:25:08.266Z,7.40
2019-02-09T23:27:36.466Z,7.30
2019-02-09T23:30:06.611Z,7.30
2019-02-09T23:32:34.614Z,7.40
2019-02-09T23:35:03.203Z,7.40
2019-02-09T23:37:31.073Z,7.40
2019-02-09T23:39:59.718Z,7.40
2019-02-09T23:42:28.101Z,7.30
2019-02-09T23:44:56.152Z,7.30
2019-02-09T23:47:24.182Z,7.30
2019-02-09T23:49:55.401Z,7.30
2019-02-09T23:53:16.084Z,7.30
2019-02-09T23:55:51.070Z,7.40
2019-02-09T23:58:19.567Z,7.30
